sensor_id;sensor_type;location;lat;lon;timestamp;temperature;humidity
5278;DHT22;2662;51.194;6.614;2024-01-11T00:00:10;-2.80;99.90
5278;DHT22;2662;51.194;6.614;2024-01-11T00:02:37;-2.80;99.90
5278;DHT22;2662;51.194;6.614;2024-01-11T00:05:05;-2.80;99.90
5278;DHT22;2662;51.194;6.614;2024-01-11T00:07:33;-2.80;99.90
5278;DHT22;2662;51.194;6.614;2024-01-11T00:10:01;-2.80;99.90
5278;DHT22;2662;51.194;6.614;2024-01-11T00:12:29;-2.80;99.90
5278;DHT22;2662;51.194;6.614;2024-01-11T00:14:57;-2.80;99.90
5278;DHT22;2662;51.194;6.614;2024-01-11T00:17:24;-2.80;99.90
5278;DHT22;2662;51.194;6.614;2024-01-11T00:19:51;-2.90;99.90
5278;DHT22;2662;51.194;6.614;2024-01-11T00:22:19;-2.90;99.90
5278;DHT22;2662;51.194;6.614;2024-01-11T00:24:46;-2.90;99.90
5278;DHT22;2662;51.194;6.614;2024-01-11T00:27:13;-2.90;99.90
5278;DHT22;2662;51.194;6.614;2024-01-11T00:29:39;-2.90;99.90
5278;DHT22;2662;51.194;6.614;2024-01-11T00:32:06;-2.90;99.90
5278;DHT22;2662;51.194;6.614;2024-01-11T00:34:33;-3.00;99.90
5278;DHT22;2662;51.194;6.614;2024-01-11T00:37:01;-3.00;99.90
5278;DHT22;2662;51.194;6.614;2024-01-11T00:39:29;-2.90;99.90
5278;DHT22;2662;51.194;6.614;2024-01-11T00:41:56;-2.90;99.90
5278;DHT22;2662;51.194;6.614;2024-01-11T00:44:23;-2.90;99.90
5278;DHT22;2662;51.194;6.614;2024-01-11T00:46:50;-2.90;99.90
5278;DHT22;2662;51.194;6.614;2024-01-11T00:49:16;-3.00;99.90
5278;DHT22;2662;51.194;6.614;2024-01-11T00:51:43;-3.00;99.90
5278;DHT22;2662;51.194;6.614;2024-01-11T00:54:10;-3.00;99.90
5278;DHT22;2662;51.194;6.614;2024-01-11T00:56:38;-3.00;99.90
5278;DHT22;2662;51.194;6.614;2024-01-11T00:59:05;-3.10;99.90
5278;DHT22;2662;51.194;6.614;2024-01-11T01:01:31;-3.10;99.90
5278;DHT22;2662;51.194;6.614;2024-01-11T01:03:58;-3.10;99.90
5278;DHT22;2662;51.194;6.614;2024-01-11T01:06:25;-3.10;99.90
5278;DHT22;2662;51.194;6.614;2024-01-11T01:08:53;-3.20;99.90
5278;DHT22;2662;51.194;6.614;2024-01-11T01:11:20;-3.20;99.90
5278;DHT22;2662;51.194;6.614;2024-01-11T01:13:48;-3.20;99.90
5278;DHT22;2662;51.194;6.614;2024-01-11T01:16:14;-3.20;99.90
5278;DHT22;2662;51.194;6.614;2024-01-11T01:18:43;-3.30;99.90
5278;DHT22;2662;51.194;6.614;2024-01-11T01:21:10;-3.30;99.90
5278;DHT22;2662;51.194;6.614;2024-01-11T01:23:36;-3.30;99.90
5278;DHT22;2662;51.194;6.614;2024-01-11T01:26:03;-3.30;99.90
5278;DHT22;2662;51.194;6.614;2024-01-11T01:28:30;-3.40;99.90
5278;DHT22;2662;51.194;6.614;2024-01-11T01:30:58;-3.40;99.90
5278;DHT22;2662;51.194;6.614;2024-01-11T01:33:25;-3.40;99.90
5278;DHT22;2662;51.194;6.614;2024-01-11T01:35:51;-3.50;99.90
5278;DHT22;2662;51.194;6.614;2024-01-11T01:38:18;-3.50;99.90
5278;DHT22;2662;51.194;6.614;2024-01-11T01:40:45;-3.60;99.90
5278;DHT22;2662;51.194;6.614;2024-01-11T01:43:12;-3.60;99.90
5278;DHT22;2662;51.194;6.614;2024-01-11T01:45:39;-3.60;99.90
5278;DHT22;2662;51.194;6.614;2024-01-11T01:48:07;-3.60;99.90
5278;DHT22;2662;51.194;6.614;2024-01-11T01:50:34;-3.70;99.90
5278;DHT22;2662;51.194;6.614;2024-01-11T01:53:01;-3.70;99.90
5278;DHT22;2662;51.194;6.614;2024-01-11T01:55:29;-3.70;99.90
5278;DHT22;2662;51.194;6.614;2024-01-11T01:57:56;-3.70;99.90
5278;DHT22;2662;51.194;6.614;2024-01-11T02:00:24;-3.80;99.90
5278;DHT22;2662;51.194;6.614;2024-01-11T02:02:52;-3.80;99.90
5278;DHT22;2662;51.194;6.614;2024-01-11T02:05:20;-3.90;99.90
5278;DHT22;2662;51.194;6.614;2024-01-11T02:07:47;-3.90;99.90
5278;DHT22;2662;51.194;6.614;2024-01-11T02:10:15;-4.00;99.90
5278;DHT22;2662;51.194;6.614;2024-01-11T02:12:43;-4.00;99.90
5278;DHT22;2662;51.194;6.614;2024-01-11T02:15:10;-4.00;99.90
5278;DHT22;2662;51.194;6.614;2024-01-11T02:17:40;-4.00;99.90
5278;DHT22;2662;51.194;6.614;2024-01-11T02:20:08;-4.00;99.90
5278;DHT22;2662;51.194;6.614;2024-01-11T02:22:38;-4.00;99.90
5278;DHT22;2662;51.194;6.614;2024-01-11T02:25:08;-4.00;99.90
5278;DHT22;2662;51.194;6.614;2024-01-11T02:27:45;-4.00;99.90
5278;DHT22;2662;51.194;6.614;2024-01-11T02:30:13;-4.10;99.90
5278;DHT22;2662;51.194;6.614;2024-01-11T02:32:41;-4.10;99.90
5278;DHT22;2662;51.194;6.614;2024-01-11T02:35:08;-4.10;99.90
5278;DHT22;2662;51.194;6.614;2024-01-11T02:37:36;-4.20;99.90
5278;DHT22;2662;51.194;6.614;2024-01-11T02:40:05;-4.20;99.90
5278;DHT22;2662;51.194;6.614;2024-01-11T02:42:34;-4.20;99.90
5278;DHT22;2662;51.194;6.614;2024-01-11T02:45:01;-4.20;99.90
5278;DHT22;2662;51.194;6.614;2024-01-11T02:47:29;-4.20;99.90
5278;DHT22;2662;51.194;6.614;2024-01-11T02:49:56;-4.30;99.90
5278;DHT22;2662;51.194;6.614;2024-01-11T02:52:22;-4.30;99.90
5278;DHT22;2662;51.194;6.614;2024-01-11T02:54:49;-4.30;99.90
5278;DHT22;2662;51.194;6.614;2024-01-11T02:57:16;-4.30;99.90
5278;DHT22;2662;51.194;6.614;2024-01-11T02:59:44;-4.30;99.90
5278;DHT22;2662;51.194;6.614;2024-01-11T03:02:11;-4.30;99.90
5278;DHT22;2662;51.194;6.614;2024-01-11T03:04:38;-4.30;99.90
5278;DHT22;2662;51.194;6.614;2024-01-11T03:07:05;-4.20;99.90
5278;DHT22;2662;51.194;6.614;2024-01-11T03:09:31;-4.30;99.90
5278;DHT22;2662;51.194;6.614;2024-01-11T03:11:59;-4.30;99.90
5278;DHT22;2662;51.194;6.614;2024-01-11T03:14:26;-4.30;99.90
5278;DHT22;2662;51.194;6.614;2024-01-11T03:16:54;-4.30;99.90
5278;DHT22;2662;51.194;6.614;2024-01-11T03:19:21;-4.30;99.90
5278;DHT22;2662;51.194;6.614;2024-01-11T03:21:47;-4.20;99.90
5278;DHT22;2662;51.194;6.614;2024-01-11T03:24:14;-4.30;99.90
5278;DHT22;2662;51.194;6.614;2024-01-11T03:26:41;-4.30;99.90
5278;DHT22;2662;51.194;6.614;2024-01-11T03:29:08;-4.30;99.90
5278;DHT22;2662;51.194;6.614;2024-01-11T03:31:35;-4.30;99.90
5278;DHT22;2662;51.194;6.614;2024-01-11T03:34:04;-4.30;99.90
5278;DHT22;2662;51.194;6.614;2024-01-11T03:36:31;-4.30;99.90
5278;DHT22;2662;51.194;6.614;2024-01-11T03:38:58;-4.30;99.90
5278;DHT22;2662;51.194;6.614;2024-01-11T03:41:25;-4.30;99.90
5278;DHT22;2662;51.194;6.614;2024-01-11T03:43:52;-4.40;99.90
5278;DHT22;2662;51.194;6.614;2024-01-11T03:46:18;-4.40;99.90
5278;DHT22;2662;51.194;6.614;2024-01-11T03:48:45;-4.40;99.90
5278;DHT22;2662;51.194;6.614;2024-01-11T03:51:14;-4.40;99.90
5278;DHT22;2662;51.194;6.614;2024-01-11T03:53:40;-4.40;99.90
5278;DHT22;2662;51.194;6.614;2024-01-11T03:56:07;-4.40;99.90
5278;DHT22;2662;51.194;6.614;2024-01-11T03:58:35;-4.40;99.90
5278;DHT22;2662;51.194;6.614;2024-01-11T04:01:04;-4.40;99.90
5278;DHT22;2662;51.194;6.614;2024-01-11T04:03:32;-4.40;99.90
5278;DHT22;2662;51.194;6.614;2024-01-11T04:05:59;-4.40;99.90
5278;DHT22;2662;51.194;6.614;2024-01-11T04:08:27;-4.50;99.90
5278;DHT22;2662;51.194;6.614;2024-01-11T04:10:54;-4.50;99.90
5278;DHT22;2662;51.194;6.614;2024-01-11T04:13:21;-4.50;99.90
5278;DHT22;2662;51.194;6.614;2024-01-11T04:15:47;-4.50;99.90
5278;DHT22;2662;51.194;6.614;2024-01-11T04:18:14;-4.50;99.90
5278;DHT22;2662;51.194;6.614;2024-01-11T04:20:41;-4.50;99.90
5278;DHT22;2662;51.194;6.614;2024-01-11T04:23:08;-4.50;99.90
5278;DHT22;2662;51.194;6.614;2024-01-11T04:25:36;-4.50;99.90
5278;DHT22;2662;51.194;6.614;2024-01-11T04:28:03;-4.60;99.90
5278;DHT22;2662;51.194;6.614;2024-01-11T04:30:31;-4.60;99.90
5278;DHT22;2662;51.194;6.614;2024-01-11T04:32:58;-4.50;99.90
5278;DHT22;2662;51.194;6.614;2024-01-11T04:35:25;-4.60;99.90
5278;DHT22;2662;51.194;6.614;2024-01-11T04:37:52;-4.50;99.90
5278;DHT22;2662;51.194;6.614;2024-01-11T04:40:18;-4.60;99.90
5278;DHT22;2662;51.194;6.614;2024-01-11T04:42:47;-4.60;99.90
5278;DHT22;2662;51.194;6.614;2024-01-11T04:45:13;-4.60;99.90
5278;DHT22;2662;51.194;6.614;2024-01-11T04:47:40;-4.60;99.90
5278;DHT22;2662;51.194;6.614;2024-01-11T04:50:07;-4.60;99.90
5278;DHT22;2662;51.194;6.614;2024-01-11T04:52:34;-4.60;99.90
5278;DHT22;2662;51.194;6.614;2024-01-11T04:55:01;-4.60;99.90
5278;DHT22;2662;51.194;6.614;2024-01-11T04:57:28;-4.60;99.90
5278;DHT22;2662;51.194;6.614;2024-01-11T04:59:56;-4.60;99.90
5278;DHT22;2662;51.194;6.614;2024-01-11T05:02:23;-4.60;99.90
5278;DHT22;2662;51.194;6.614;2024-01-11T05:04:49;-4.60;99.90
5278;DHT22;2662;51.194;6.614;2024-01-11T05:07:16;-4.60;99.90
5278;DHT22;2662;51.194;6.614;2024-01-11T05:09:43;-4.60;99.90
5278;DHT22;2662;51.194;6.614;2024-01-11T05:12:10;-4.50;99.90
5278;DHT22;2662;51.194;6.614;2024-01-11T05:14:36;-4.50;99.90
5278;DHT22;2662;51.194;6.614;2024-01-11T05:17:05;-4.50;99.90
5278;DHT22;2662;51.194;6.614;2024-01-11T05:19:31;-4.50;99.90
5278;DHT22;2662;51.194;6.614;2024-01-11T05:21:58;-4.50;99.90
5278;DHT22;2662;51.194;6.614;2024-01-11T05:24:25;-4.50;99.90
5278;DHT22;2662;51.194;6.614;2024-01-11T05:26:52;-4.50;99.90
5278;DHT22;2662;51.194;6.614;2024-01-11T05:29:18;-4.50;99.90
5278;DHT22;2662;51.194;6.614;2024-01-11T05:31:45;-4.50;99.90
5278;DHT22;2662;51.194;6.614;2024-01-11T05:34:13;-4.50;99.90
5278;DHT22;2662;51.194;6.614;2024-01-11T05:36:40;-4.50;99.90
5278;DHT22;2662;51.194;6.614;2024-01-11T05:39:07;-4.50;99.90
5278;DHT22;2662;51.194;6.614;2024-01-11T05:41:33;-4.50;99.90
5278;DHT22;2662;51.194;6.614;2024-01-11T05:44:00;-4.50;99.90
5278;DHT22;2662;51.194;6.614;2024-01-11T05:46:27;-4.50;99.90
5278;DHT22;2662;51.194;6.614;2024-01-11T05:48:54;-4.50;99.90
5278;DHT22;2662;51.194;6.614;2024-01-11T05:51:22;-4.50;99.90
5278;DHT22;2662;51.194;6.614;2024-01-11T05:53:49;-4.50;99.90
5278;DHT22;2662;51.194;6.614;2024-01-11T05:56:15;-4.50;99.90
5278;DHT22;2662;51.194;6.614;2024-01-11T05:58:42;-4.50;99.90
5278;DHT22;2662;51.194;6.614;2024-01-11T06:01:09;-4.50;99.90
5278;DHT22;2662;51.194;6.614;2024-01-11T06:03:36;-4.50;99.90
5278;DHT22;2662;51.194;6.614;2024-01-11T06:06:04;-4.40;99.90
5278;DHT22;2662;51.194;6.614;2024-01-11T06:08:33;-4.50;99.90
5278;DHT22;2662;51.194;6.614;2024-01-11T06:11:00;-4.50;99.90
5278;DHT22;2662;51.194;6.614;2024-01-11T06:13:27;-4.60;99.90
5278;DHT22;2662;51.194;6.614;2024-01-11T06:15:54;-4.60;99.90
5278;DHT22;2662;51.194;6.614;2024-01-11T06:18:21;-4.60;99.90
5278;DHT22;2662;51.194;6.614;2024-01-11T06:20:47;-4.60;99.90
5278;DHT22;2662;51.194;6.614;2024-01-11T06:23:14;-4.70;99.90
5278;DHT22;2662;51.194;6.614;2024-01-11T06:25:43;-4.70;99.90
5278;DHT22;2662;51.194;6.614;2024-01-11T06:28:11;-4.70;99.90
5278;DHT22;2662;51.194;6.614;2024-01-11T06:30:38;-4.70;99.90
5278;DHT22;2662;51.194;6.614;2024-01-11T06:33:05;-4.60;99.90
5278;DHT22;2662;51.194;6.614;2024-01-11T06:35:31;-4.60;99.90
5278;DHT22;2662;51.194;6.614;2024-01-11T06:37:58;-4.70;99.90
5278;DHT22;2662;51.194;6.614;2024-01-11T06:40:25;-4.60;99.90
5278;DHT22;2662;51.194;6.614;2024-01-11T06:42:53;-4.60;99.90
5278;DHT22;2662;51.194;6.614;2024-01-11T06:45:21;-4.60;99.90
5278;DHT22;2662;51.194;6.614;2024-01-11T06:47:47;-4.60;99.90
5278;DHT22;2662;51.194;6.614;2024-01-11T06:50:14;-4.60;99.90
5278;DHT22;2662;51.194;6.614;2024-01-11T06:52:41;-4.60;99.90
5278;DHT22;2662;51.194;6.614;2024-01-11T06:55:08;-4.60;99.90
5278;DHT22;2662;51.194;6.614;2024-01-11T06:57:36;-4.60;99.90
5278;DHT22;2662;51.194;6.614;2024-01-11T07:00:05;-4.60;99.90
5278;DHT22;2662;51.194;6.614;2024-01-11T07:02:33;-4.60;99.90
5278;DHT22;2662;51.194;6.614;2024-01-11T07:05:00;-4.60;99.90
5278;DHT22;2662;51.194;6.614;2024-01-11T07:07:27;-4.70;99.90
5278;DHT22;2662;51.194;6.614;2024-01-11T07:09:54;-4.70;99.90
5278;DHT22;2662;51.194;6.614;2024-01-11T07:12:21;-4.80;99.90
5278;DHT22;2662;51.194;6.614;2024-01-11T07:14:48;-4.80;99.90
5278;DHT22;2662;51.194;6.614;2024-01-11T07:17:16;-4.80;99.90
5278;DHT22;2662;51.194;6.614;2024-01-11T07:19:43;-4.80;99.90
5278;DHT22;2662;51.194;6.614;2024-01-11T07:22:10;-4.80;99.90
5278;DHT22;2662;51.194;6.614;2024-01-11T07:24:37;-4.80;99.90
5278;DHT22;2662;51.194;6.614;2024-01-11T07:27:04;-4.80;99.90
5278;DHT22;2662;51.194;6.614;2024-01-11T07:29:31;-4.80;99.90
5278;DHT22;2662;51.194;6.614;2024-01-11T07:31:58;-4.80;99.90
5278;DHT22;2662;51.194;6.614;2024-01-11T07:34:27;-4.80;99.90
5278;DHT22;2662;51.194;6.614;2024-01-11T07:36:54;-4.70;99.90
5278;DHT22;2662;51.194;6.614;2024-01-11T07:39:20;-4.70;99.90
5278;DHT22;2662;51.194;6.614;2024-01-11T07:41:50;-4.60;99.90
5278;DHT22;2662;51.194;6.614;2024-01-11T07:44:18;-4.60;99.90
5278;DHT22;2662;51.194;6.614;2024-01-11T07:46:46;-4.60;99.90
5278;DHT22;2662;51.194;6.614;2024-01-11T07:49:13;-4.60;99.90
5278;DHT22;2662;51.194;6.614;2024-01-11T07:51:41;-4.50;99.90
5278;DHT22;2662;51.194;6.614;2024-01-11T07:54:07;-4.50;99.90
5278;DHT22;2662;51.194;6.614;2024-01-11T07:56:34;-4.50;99.90
5278;DHT22;2662;51.194;6.614;2024-01-11T07:59:01;-4.50;99.90
5278;DHT22;2662;51.194;6.614;2024-01-11T08:01:28;-4.40;99.90
5278;DHT22;2662;51.194;6.614;2024-01-11T08:03:55;-4.40;99.90
5278;DHT22;2662;51.194;6.614;2024-01-11T08:06:21;-4.30;99.90
5278;DHT22;2662;51.194;6.614;2024-01-11T08:08:50;-4.30;99.90
5278;DHT22;2662;51.194;6.614;2024-01-11T08:11:17;-4.20;99.90
5278;DHT22;2662;51.194;6.614;2024-01-11T08:13:44;-4.20;99.90
5278;DHT22;2662;51.194;6.614;2024-01-11T08:16:15;-4.10;99.90
5278;DHT22;2662;51.194;6.614;2024-01-11T08:18:43;-4.10;99.90
5278;DHT22;2662;51.194;6.614;2024-01-11T08:21:11;-4.00;99.90
5278;DHT22;2662;51.194;6.614;2024-01-11T08:23:39;-4.00;99.90
5278;DHT22;2662;51.194;6.614;2024-01-11T08:26:11;-4.00;99.90
5278;DHT22;2662;51.194;6.614;2024-01-11T08:28:38;-3.90;99.90
5278;DHT22;2662;51.194;6.614;2024-01-11T08:31:05;-3.90;99.90
5278;DHT22;2662;51.194;6.614;2024-01-11T08:33:32;-3.90;99.90
5278;DHT22;2662;51.194;6.614;2024-01-11T08:35:59;-3.80;99.90
5278;DHT22;2662;51.194;6.614;2024-01-11T08:38:25;-3.10;99.90
5278;DHT22;2662;51.194;6.614;2024-01-11T08:40:52;-2.40;99.90
5278;DHT22;2662;51.194;6.614;2024-01-11T08:43:20;-1.60;99.90
5278;DHT22;2662;51.194;6.614;2024-01-11T08:45:47;-1.10;99.90
5278;DHT22;2662;51.194;6.614;2024-01-11T08:48:14;-0.70;99.90
5278;DHT22;2662;51.194;6.614;2024-01-11T08:50:41;-0.40;99.90
5278;DHT22;2662;51.194;6.614;2024-01-11T08:53:08;0.10;99.90
5278;DHT22;2662;51.194;6.614;2024-01-11T08:55:35;0.80;99.90
5278;DHT22;2662;51.194;6.614;2024-01-11T08:58:03;1.00;99.90
5278;DHT22;2662;51.194;6.614;2024-01-11T09:00:31;0.70;99.90
5278;DHT22;2662;51.194;6.614;2024-01-11T09:02:59;0.50;99.90
5278;DHT22;2662;51.194;6.614;2024-01-11T09:05:26;0.30;99.90
5278;DHT22;2662;51.194;6.614;2024-01-11T09:07:53;0.20;99.90
5278;DHT22;2662;51.194;6.614;2024-01-11T09:10:20;0.00;99.90
5278;DHT22;2662;51.194;6.614;2024-01-11T09:12:47;0.10;99.90
5278;DHT22;2662;51.194;6.614;2024-01-11T09:15:17;0.30;99.90
5278;DHT22;2662;51.194;6.614;2024-01-11T09:17:46;0.50;99.90
5278;DHT22;2662;51.194;6.614;2024-01-11T09:20:13;1.10;99.90
5278;DHT22;2662;51.194;6.614;2024-01-11T09:22:40;1.80;99.90
5278;DHT22;2662;51.194;6.614;2024-01-11T09:25:07;2.70;99.90
5278;DHT22;2662;51.194;6.614;2024-01-11T09:27:34;3.50;99.90
5278;DHT22;2662;51.194;6.614;2024-01-11T09:30:02;3.70;99.90
5278;DHT22;2662;51.194;6.614;2024-01-11T09:32:31;3.70;99.90
5278;DHT22;2662;51.194;6.614;2024-01-11T09:35:01;4.10;99.90
5278;DHT22;2662;51.194;6.614;2024-01-11T09:37:28;4.10;99.90
5278;DHT22;2662;51.194;6.614;2024-01-11T09:39:57;4.10;99.90
5278;DHT22;2662;51.194;6.614;2024-01-11T09:42:26;3.90;99.90
5278;DHT22;2662;51.194;6.614;2024-01-11T09:44:56;3.30;99.90
5278;DHT22;2662;51.194;6.614;2024-01-11T09:47:25;3.40;99.90
5278;DHT22;2662;51.194;6.614;2024-01-11T09:49:53;3.20;99.90
5278;DHT22;2662;51.194;6.614;2024-01-11T09:52:23;3.30;99.90
5278;DHT22;2662;51.194;6.614;2024-01-11T09:54:52;3.20;99.90
5278;DHT22;2662;51.194;6.614;2024-01-11T09:57:23;3.00;99.90
5278;DHT22;2662;51.194;6.614;2024-01-11T09:59:54;2.90;99.90
5278;DHT22;2662;51.194;6.614;2024-01-11T10:02:26;2.90;99.90
5278;DHT22;2662;51.194;6.614;2024-01-11T10:04:54;3.10;99.90
5278;DHT22;2662;51.194;6.614;2024-01-11T10:07:23;3.20;99.90
5278;DHT22;2662;51.194;6.614;2024-01-11T10:09:51;3.50;99.90
5278;DHT22;2662;51.194;6.614;2024-01-11T10:12:18;3.60;99.90
5278;DHT22;2662;51.194;6.614;2024-01-11T10:14:49;3.70;99.90
5278;DHT22;2662;51.194;6.614;2024-01-11T10:17:23;3.90;99.90
5278;DHT22;2662;51.194;6.614;2024-01-11T10:20:00;4.00;99.90
5278;DHT22;2662;51.194;6.614;2024-01-11T10:22:32;3.70;99.90
5278;DHT22;2662;51.194;6.614;2024-01-11T10:25:09;3.40;99.90
5278;DHT22;2662;51.194;6.614;2024-01-11T10:27:41;3.20;99.90
5278;DHT22;2662;51.194;6.614;2024-01-11T10:30:10;2.90;99.90
5278;DHT22;2662;51.194;6.614;2024-01-11T10:32:38;2.80;99.90
5278;DHT22;2662;51.194;6.614;2024-01-11T10:35:09;2.60;99.90
5278;DHT22;2662;51.194;6.614;2024-01-11T10:37:39;2.50;99.90
5278;DHT22;2662;51.194;6.614;2024-01-11T10:40:07;2.40;99.90
5278;DHT22;2662;51.194;6.614;2024-01-11T10:42:41;2.10;99.90
5278;DHT22;2662;51.194;6.614;2024-01-11T10:45:11;1.40;99.90
5278;DHT22;2662;51.194;6.614;2024-01-11T10:47:47;1.10;99.90
5278;DHT22;2662;51.194;6.614;2024-01-11T10:50:16;0.70;99.90
5278;DHT22;2662;51.194;6.614;2024-01-11T10:52:54;0.40;99.90
5278;DHT22;2662;51.194;6.614;2024-01-11T10:55:23;0.20;99.90
5278;DHT22;2662;51.194;6.614;2024-01-11T10:57:51;0.10;99.90
5278;DHT22;2662;51.194;6.614;2024-01-11T11:00:19;0.10;99.90
5278;DHT22;2662;51.194;6.614;2024-01-11T11:02:48;0.00;99.90
5278;DHT22;2662;51.194;6.614;2024-01-11T11:05:18;0.00;99.90
5278;DHT22;2662;51.194;6.614;2024-01-11T11:07:46;0.00;99.90
5278;DHT22;2662;51.194;6.614;2024-01-11T11:10:13;0.10;99.90
5278;DHT22;2662;51.194;6.614;2024-01-11T11:12:42;0.20;99.90
5278;DHT22;2662;51.194;6.614;2024-01-11T11:15:10;0.20;99.90
5278;DHT22;2662;51.194;6.614;2024-01-11T11:17:39;0.30;99.90
5278;DHT22;2662;51.194;6.614;2024-01-11T11:20:07;0.40;99.90
5278;DHT22;2662;51.194;6.614;2024-01-11T11:22:34;0.30;99.90
5278;DHT22;2662;51.194;6.614;2024-01-11T11:25:08;0.40;99.90
5278;DHT22;2662;51.194;6.614;2024-01-11T11:27:37;0.60;99.90
5278;DHT22;2662;51.194;6.614;2024-01-11T11:30:05;0.70;99.90
5278;DHT22;2662;51.194;6.614;2024-01-11T11:32:35;0.60;99.90
5278;DHT22;2662;51.194;6.614;2024-01-11T11:35:03;0.70;99.90
5278;DHT22;2662;51.194;6.614;2024-01-11T11:37:30;0.90;99.90
5278;DHT22;2662;51.194;6.614;2024-01-11T11:39:58;0.90;99.90
5278;DHT22;2662;51.194;6.614;2024-01-11T11:42:26;0.80;99.90
5278;DHT22;2662;51.194;6.614;2024-01-11T11:44:56;1.00;99.90
5278;DHT22;2662;51.194;6.614;2024-01-11T11:47:25;1.10;99.90
5278;DHT22;2662;51.194;6.614;2024-01-11T11:50:04;1.20;99.90
5278;DHT22;2662;51.194;6.614;2024-01-11T11:52:33;1.20;99.90
5278;DHT22;2662;51.194;6.614;2024-01-11T11:55:01;1.20;99.90
5278;DHT22;2662;51.194;6.614;2024-01-11T11:57:30;1.40;99.90
5278;DHT22;2662;51.194;6.614;2024-01-11T11:59:58;1.50;99.90
5278;DHT22;2662;51.194;6.614;2024-01-11T12:02:32;1.50;99.90
5278;DHT22;2662;51.194;6.614;2024-01-11T12:05:01;1.40;99.90
5278;DHT22;2662;51.194;6.614;2024-01-11T12:07:41;1.40;99.90
5278;DHT22;2662;51.194;6.614;2024-01-11T12:10:08;1.50;99.90
5278;DHT22;2662;51.194;6.614;2024-01-11T12:12:40;1.60;99.90
5278;DHT22;2662;51.194;6.614;2024-01-11T12:15:08;1.50;99.90
5278;DHT22;2662;51.194;6.614;2024-01-11T12:17:37;1.70;99.90
5278;DHT22;2662;51.194;6.614;2024-01-11T12:20:10;1.70;99.90
5278;DHT22;2662;51.194;6.614;2024-01-11T12:22:42;1.80;99.90
5278;DHT22;2662;51.194;6.614;2024-01-11T12:25:09;1.80;99.90
5278;DHT22;2662;51.194;6.614;2024-01-11T12:27:42;1.90;99.90
5278;DHT22;2662;51.194;6.614;2024-01-11T12:30:11;1.90;99.90
5278;DHT22;2662;51.194;6.614;2024-01-11T12:32:42;1.90;99.90
5278;DHT22;2662;51.194;6.614;2024-01-11T12:35:09;1.80;99.90
5278;DHT22;2662;51.194;6.614;2024-01-11T12:37:37;1.80;99.90
5278;DHT22;2662;51.194;6.614;2024-01-11T12:40:04;1.90;99.90
5278;DHT22;2662;51.194;6.614;2024-01-11T12:42:34;2.00;99.90
5278;DHT22;2662;51.194;6.614;2024-01-11T12:45:08;2.00;99.90
5278;DHT22;2662;51.194;6.614;2024-01-11T12:47:36;2.00;99.90
5278;DHT22;2662;51.194;6.614;2024-01-11T12:50:07;1.90;99.90
5278;DHT22;2662;51.194;6.614;2024-01-11T12:52:36;2.00;99.90
5278;DHT22;2662;51.194;6.614;2024-01-11T12:55:06;1.90;99.90
5278;DHT22;2662;51.194;6.614;2024-01-11T12:57:35;2.00;99.90
5278;DHT22;2662;51.194;6.614;2024-01-11T13:00:14;2.10;99.90
5278;DHT22;2662;51.194;6.614;2024-01-11T13:02:43;2.10;99.90
5278;DHT22;2662;51.194;6.614;2024-01-11T13:05:11;2.10;99.90
5278;DHT22;2662;51.194;6.614;2024-01-11T13:07:39;2.00;99.90
5278;DHT22;2662;51.194;6.614;2024-01-11T13:10:07;1.90;99.90
5278;DHT22;2662;51.194;6.614;2024-01-11T13:12:35;1.90;99.90
5278;DHT22;2662;51.194;6.614;2024-01-11T13:15:02;2.00;99.90
5278;DHT22;2662;51.194;6.614;2024-01-11T13:17:31;2.10;99.90
5278;DHT22;2662;51.194;6.614;2024-01-11T13:19:58;2.20;99.90
5278;DHT22;2662;51.194;6.614;2024-01-11T13:22:27;2.20;99.90
5278;DHT22;2662;51.194;6.614;2024-01-11T13:24:53;2.20;99.90
5278;DHT22;2662;51.194;6.614;2024-01-11T13:27:20;2.10;99.90
5278;DHT22;2662;51.194;6.614;2024-01-11T13:29:47;2.00;99.90
5278;DHT22;2662;51.194;6.614;2024-01-11T13:32:14;2.00;99.90
5278;DHT22;2662;51.194;6.614;2024-01-11T13:34:44;2.00;99.90
5278;DHT22;2662;51.194;6.614;2024-01-11T13:37:11;2.00;99.90
5278;DHT22;2662;51.194;6.614;2024-01-11T13:39:38;2.10;99.90
5278;DHT22;2662;51.194;6.614;2024-01-11T13:42:06;2.20;99.90
5278;DHT22;2662;51.194;6.614;2024-01-11T13:44:34;2.20;99.90
5278;DHT22;2662;51.194;6.614;2024-01-11T13:47:02;2.20;99.90
5278;DHT22;2662;51.194;6.614;2024-01-11T13:49:29;2.10;99.90
5278;DHT22;2662;51.194;6.614;2024-01-11T13:51:58;2.00;99.90
5278;DHT22;2662;51.194;6.614;2024-01-11T13:54:25;2.00;99.90
5278;DHT22;2662;51.194;6.614;2024-01-11T13:56:52;2.10;99.90
5278;DHT22;2662;51.194;6.614;2024-01-11T13:59:18;2.20;99.90
5278;DHT22;2662;51.194;6.614;2024-01-11T14:01:45;2.20;99.90
5278;DHT22;2662;51.194;6.614;2024-01-11T14:04:12;2.10;99.90
5278;DHT22;2662;51.194;6.614;2024-01-11T14:06:40;2.10;99.90
5278;DHT22;2662;51.194;6.614;2024-01-11T14:09:10;2.00;99.90
5278;DHT22;2662;51.194;6.614;2024-01-11T14:11:45;2.10;99.90
5278;DHT22;2662;51.194;6.614;2024-01-11T14:14:14;2.00;99.90
5278;DHT22;2662;51.194;6.614;2024-01-11T14:16:41;1.90;99.90
5278;DHT22;2662;51.194;6.614;2024-01-11T14:19:08;2.00;99.90
5278;DHT22;2662;51.194;6.614;2024-01-11T14:21:35;2.00;99.90
5278;DHT22;2662;51.194;6.614;2024-01-11T14:24:02;1.90;99.90
5278;DHT22;2662;51.194;6.614;2024-01-11T14:26:31;1.90;99.90
5278;DHT22;2662;51.194;6.614;2024-01-11T14:28:58;2.00;99.90
5278;DHT22;2662;51.194;6.614;2024-01-11T14:31:26;2.00;99.90
5278;DHT22;2662;51.194;6.614;2024-01-11T14:33:54;2.00;99.90
5278;DHT22;2662;51.194;6.614;2024-01-11T14:36:22;2.00;99.90
5278;DHT22;2662;51.194;6.614;2024-01-11T14:38:49;2.00;99.90
5278;DHT22;2662;51.194;6.614;2024-01-11T14:41:16;1.90;99.90
5278;DHT22;2662;51.194;6.614;2024-01-11T14:43:44;1.90;99.90
5278;DHT22;2662;51.194;6.614;2024-01-11T14:46:12;1.90;99.90
5278;DHT22;2662;51.194;6.614;2024-01-11T14:48:40;1.90;99.90
5278;DHT22;2662;51.194;6.614;2024-01-11T14:51:07;1.90;99.90
5278;DHT22;2662;51.194;6.614;2024-01-11T14:53:36;1.80;99.90
5278;DHT22;2662;51.194;6.614;2024-01-11T14:56:03;1.80;99.90
5278;DHT22;2662;51.194;6.614;2024-01-11T14:58:29;1.70;99.90
5278;DHT22;2662;51.194;6.614;2024-01-11T15:00:58;1.60;99.90
5278;DHT22;2662;51.194;6.614;2024-01-11T15:03:25;1.60;99.90
5278;DHT22;2662;51.194;6.614;2024-01-11T15:05:54;1.50;99.90
5278;DHT22;2662;51.194;6.614;2024-01-11T15:08:22;1.50;99.90
5278;DHT22;2662;51.194;6.614;2024-01-11T15:10:49;1.50;99.90
5278;DHT22;2662;51.194;6.614;2024-01-11T15:13:16;1.50;99.90
5278;DHT22;2662;51.194;6.614;2024-01-11T15:15:43;1.40;99.90
5278;DHT22;2662;51.194;6.614;2024-01-11T15:18:11;1.40;99.90
5278;DHT22;2662;51.194;6.614;2024-01-11T15:20:39;1.30;99.90
5278;DHT22;2662;51.194;6.614;2024-01-11T15:23:07;1.20;99.90
5278;DHT22;2662;51.194;6.614;2024-01-11T15:25:33;1.10;99.90
5278;DHT22;2662;51.194;6.614;2024-01-11T15:28:00;1.10;99.90
5278;DHT22;2662;51.194;6.614;2024-01-11T15:30:27;1.00;99.90
5278;DHT22;2662;51.194;6.614;2024-01-11T15:32:54;1.00;99.90
5278;DHT22;2662;51.194;6.614;2024-01-11T15:35:22;0.90;99.90
5278;DHT22;2662;51.194;6.614;2024-01-11T15:37:50;0.90;99.90
5278;DHT22;2662;51.194;6.614;2024-01-11T15:40:17;0.80;99.90
5278;DHT22;2662;51.194;6.614;2024-01-11T15:42:45;0.70;99.90
5278;DHT22;2662;51.194;6.614;2024-01-11T15:45:12;0.60;99.90
5278;DHT22;2662;51.194;6.614;2024-01-11T15:47:39;0.60;99.90
5278;DHT22;2662;51.194;6.614;2024-01-11T15:50:07;0.50;99.90
5278;DHT22;2662;51.194;6.614;2024-01-11T15:52:38;0.50;99.90
5278;DHT22;2662;51.194;6.614;2024-01-11T15:55:05;0.40;99.90
5278;DHT22;2662;51.194;6.614;2024-01-11T15:57:34;0.30;99.90
5278;DHT22;2662;51.194;6.614;2024-01-11T16:00:01;0.30;99.90
5278;DHT22;2662;51.194;6.614;2024-01-11T16:02:29;0.20;99.90
5278;DHT22;2662;51.194;6.614;2024-01-11T16:04:56;0.10;99.90
5278;DHT22;2662;51.194;6.614;2024-01-11T16:07:24;0.00;99.90
5278;DHT22;2662;51.194;6.614;2024-01-11T16:09:52;0.00;99.90
5278;DHT22;2662;51.194;6.614;2024-01-11T16:12:19;-0.10;99.90